Tiempo atmosférico en la estación meteorológica de El Campillo, Huelva (415 m.)



Fecha
DESCASC
Temp. máxima en grados centígrados (hora)
DESCASC
Temp. mínima en grados centígrados (hora)
DESCASC
Temp. media en grados centígrados
DESCASC
Racha de viento máxima en m/sg (hora)
DESCASC
Velocidad máxima media en intervalos de 10 minutos(hora)
DESCASC
Precipitaciones diarias en mm
DESCASC
Precipitaciones de 00:00 a 06:00 en mm
DESCASC
Precipitaciones de 06:00 a 12:00 en mm
DESCASC
Precipitaciones de 12:00 a 18:00 en mm
DESCASC
Precipitaciones de 18:00 a 24:00 en mm
DESCASC
24-05-2020 32.8 (17:50) 21.2 (06:30) 27 10.28 (00:20) 6.11 (00:10) 0 0 0 0 0
23-05-2020 33.7 (18:40) 21.1 (03:50) 27.4 7.22 (23:59) 5 (23:30) 0 0 0 0 0
22-05-2020 32.3 (17:20) 20.2 (02:20) 26.3 6.94 (14:30) 3.89 (23:20) 0 0 0 0 0
21-05-2020 31.2 (18:30) 19.6 (00:00) 25.4 6.67 (14:30) 3.89 (14:30) 0 0 0 0 0
20-05-2020 30.3 (18:10) 18 (00:00) 24.1 6.39 (14:10) 3.89 (15:40) 0 0 0 0 0
19-05-2020 29.3 (17:40) 16.8 (00:00) 23 6.39 (15:30) 4.17 (19:50) 0 0 0 0 0
18-05-2020 27 (18:50) 13 (00:00) 20 6.11 (17:50) 3.61 (21:00) 0 0 0 0 0
17-05-2020 22.9 (18:10) 12.3 (00:00) 17.6 6.67 (12:20) 3.33 (12:40) 0.2 0 0 0.2 0
16-05-2020 20.6 (17:30) 11.3 (00:00) 16 6.39 (14:20) 3.89 (14:20) 0.8 0.2 0 0 0.6
15-05-2020 19.5 (16:40) 10.9 (00:00) 15.2 10.28 (18:50) 5 (18:50) 10.2 0 0.2 0 10
14-05-2020 14.8 (19:00) 9.2 (00:00) 12 14.17 (19:20) 7.22 (19:10) 10.8 1 2.6 7 0.2
13-05-2020 17.1 (15:50) 9.4 (00:00) 13.3 13.33 (16:20) 8.33 (18:00) 3.8 0 0 1.8 2
12-05-2020 16.4 (12:50) 10.1 (00:00) 13.3 9.72 (14:20) 6.39 (14:30) 13.6 0 5 8.4 0.2
11-05-2020 18.9 (15:00) 12.7 (00:00) 15.8 14.44 (08:00) 8.33 (16:10) 2.8 1.4 1.4 0 0
10-05-2020 18.3 (18:30) 10.7 (00:00) 14.5 10.83 (16:00) 5.28 (16:30) 2 0.2 1.6 0.2 0
09-05-2020 19.4 (15:20) 12.5 (00:00) 15.9 11.94 (14:50) 7.5 (16:10) 12.2 0 0 8.2 4
08-05-2020 23.4 (16:10) 13.3 (00:00) 18.3 12.22 (12:50) 7.5 (14:10) 0 0 0 0 0
07-05-2020 27 (16:00) 17 (00:00) 22 10 (16:20) 5.56 (17:20) 0 0 0 0 0
06-05-2020 25.6 (18:00) 13 (00:00) 19.3 8.33 (16:10) 5.56 (20:20) 0 0 0 0 0
05-05-2020 24.5 (17:40) 11.7 (00:00) 18.1 7.22 (20:50) 5 (21:50) 0 0 0 0 0
04-05-2020 25.3 (00:00) 15.3 (00:00) 20.3 13.89 (12:00) 8.06 (12:00) 0 0 0 0 0
03-05-2020 30.9 (17:40) 19.1 (00:00) 25 8.33 (11:10) 4.44 (15:30) 0 0 0 0 0
02-05-2020 28.6 (18:40) 14.3 (00:00) 21.5 5.56 (17:00) 2.78 (01:20) 0 0 0 0 0
01-05-2020 24.8 (17:00) 11.4 (00:00) 18.1 6.11 (18:00) 3.61 (18:50) 0 0 0 0 0
30-04-2020 20.9 (18:00) 11.9 (00:00) 16.4 8.06 (09:10) 5.56 (09:10) 0.6 0 0.6 0 0
29-04-2020 20.6 (15:50) 9.4 (00:00) 15 8.89 (18:40) 5.56 (18:30) 0 0 0 0 0
28-04-2020 19.6 (16:40) 9.7 (00:00) 14.7 7.5 (18:50) 3.89 (18:50) 0 0 0 0 0
27-04-2020 -- (--) -- (--) -- -- (--) -- (--) -- -- -- -- 0

Gráficas

Temp. máximas Temp. mínimas Temp. medias Precipitaciones Rachas de viento máximas Velocidades máximas media en intervalos de 10 minutos

Datos horarios

Fecha y hora oficial Temperatura (ºC) Velocidad del viento (km/h) Dirección del viento Racha (km/h) Dirección de racha Precipitación (mm) Presión (hPa) Tendencia (hPa) Humedad (%)
2020-05-26 23:00:00 21.6 5 Oeste 13 Sur 0 -- -- 52
2020-05-26 22:00:00 24.1 4 Oeste 12 Sur 0 -- -- 44
2020-05-26 21:00:00 28.9 5 Sudeste 18 Este 0 -- -- 23
2020-05-26 20:00:00 30.2 6 Este 24 Sudeste 0 -- -- 21
2020-05-26 19:00:00 30.6 11 Sudeste 24 Sudeste 0 -- -- 21
2020-05-26 18:00:00 30.9 9 Sudeste 26 Sudeste 0 -- -- 22
2020-05-26 17:00:00 30.6 8 Este 26 Este 0 -- -- 21
2020-05-26 16:00:00 29.6 12 Este 30 Nordeste 0 -- -- 23
2020-05-26 15:00:00 28.7 14 Nordeste 26 Este 0 -- -- 26
2020-05-26 14:00:00 28.2 11 Este 24 Este 0 -- -- 26
2020-05-26 13:00:00 27.3 11 Este 24 Nordeste 0 -- -- 26
2020-05-26 12:00:00 25.8 9 Este 25 Este 0 -- -- 31
2020-05-26 11:00:00 24.4 10 Este 24 Este 0 -- -- 31
2020-05-26 10:00:00 22.2 13 Este 31 Este 0 -- -- 36
2020-05-26 09:00:00 20.4 12 Este 25 Este 0 -- -- 46
2020-05-26 08:00:00 19.2 9 Nordeste 18 Nordeste 0 -- -- 58
2020-05-26 07:00:00 18.5 11 Nordeste 13 Nordeste 0 -- -- 60
2020-05-26 06:00:00 18 8 Nordeste 11 Nordeste 0 -- -- 65
2020-05-26 05:00:00 17.7 5 Nordeste 9 Norte 0 -- -- 69
2020-05-26 04:00:00 17.5 6 Nordeste 9 Nordeste 0 -- -- 72
2020-05-26 03:00:00 17.5 7 Norte 10 Norte 0 -- -- 73
2020-05-26 02:00:00 17.9 4 Norte 7 Noroeste 0 -- -- 71
2020-05-26 01:00:00 18.8 3 Oeste 8 Oeste 0 -- -- 66
2020-05-26 00:00:00 20.1 4 Oeste 11 Oeste 0 -- -- 60
2020-05-25 23:00:00 21.1 5 Oeste 12 Oeste 0 -- -- 52
2020-05-25 22:00:00 22.8 5 Oeste 13 Oeste 0 -- -- 50
2020-05-25 21:00:00 26 8 Sudoeste 24 Sur 0 -- -- 43
2020-05-25 20:00:00 28.4 15 Sur 26 Sur 0 -- -- 34
2020-05-25 19:00:00 32.1 8 Sur 18 Sur 0 -- -- 23
2020-05-25 18:00:00 32.3 10 Sudoeste 18 Sudoeste 0 -- -- 21
2020-05-25 17:00:00 31.9 8 Sur 17 Sudeste 0 -- -- 21
2020-05-25 16:00:00 31.6 8 Sur 18 Sur 0 -- -- 22
2020-05-25 15:00:00 30.2 6 Sur 18 Este 0 -- -- 24
2020-05-25 14:00:00 29.8 5 Sudeste 20 Sudeste 0 -- -- 25
2020-05-25 13:00:00 27.9 5 Sudoeste 19 Sur 0 -- -- 36
2020-05-25 12:00:00 26 8 Sur 17 Sur 0 -- -- 41
2020-05-25 11:00:00 24.6 4 Sur 10 Sur 0 -- -- 45
2020-05-25 10:00:00 22.5 3 Norte 7 Norte 0 -- -- 51
2020-05-25 09:00:00 19.9 4 Norte 12 Norte 0 -- -- 59
2020-05-25 08:00:00 17.4 8 Norte 15 Norte 0 -- -- 63
2020-05-25 07:00:00 17 3 Norte 6 Norte 0 -- -- 62
2020-05-25 06:00:00 17.1 3 Norte 6 Sudoeste 0 -- -- 63
2020-05-25 05:00:00 17.6 0 Calma 8 Oeste 0 -- -- 63
2020-05-25 04:00:00 18.4 5 Oeste 9 Oeste 0 -- -- 58
2020-05-25 03:00:00 18.6 5 Noroeste 8 Norte 0 -- -- 61
2020-05-25 02:00:00 19.6 4 Noroeste 9 Oeste 0 -- -- 57
2020-05-25 01:00:00 20.3 5 Noroeste 12 Oeste 0 -- -- 56
2020-05-25 00:00:00 21.5 4 Noroeste 12 Oeste 0 -- -- 52
2020-05-24 23:00:00 23 4 Noroeste 17 Sudoeste 0 -- -- 44
2020-05-24 22:00:00 25.7 5 Sudoeste 12 Sur 0 -- -- 39
2020-05-24 21:00:00 28.6 2 Sudoeste 21 Sudoeste 0 -- -- 33
2020-05-24 20:00:00 30.7 17 Sur 26 Sur 0 -- -- 30
2020-05-24 19:00:00 32.6 6 Sudoeste 19 Sudoeste 0 -- -- 29
2020-05-24 18:00:00 32.7 10 Sudoeste 20 Oeste 0 -- -- 29
2020-05-24 17:00:00 32.1 5 Oeste 22 Sudoeste 0 -- -- 30
2020-05-24 16:00:00 31.5 6 Oeste 19 Sur 0 -- -- 32
2020-05-24 15:00:00 31.2 6 Sur 14 Sudeste 0 -- -- 34
2020-05-24 14:00:00 30 8 Sur 19 Sudeste 0 -- -- 34
2020-05-24 13:00:00 28.7 9 Sur 18 Sur 0 -- -- 40
2020-05-24 12:00:00 27.9 10 Sur 18 Sur 0 -- -- 40
2020-05-24 11:00:00 26.8 10 Sur 19 Sur 0 -- -- 42
2020-05-24 10:00:00 26.4 8 Sudeste 15 Sudeste 0 -- -- 42
2020-05-24 09:00:00 23.4 4 Norte 9 Nordeste 0 -- -- 56
2020-05-24 08:00:00 21.8 6 Nordeste 13 Este 0 -- -- 56
2020-05-24 07:00:00 21.5 6 Sudeste 13 Este 0 -- -- 56
2020-05-24 06:00:00 22.3 5 Sur 12 Sudeste 0 -- -- 53
2020-05-24 05:00:00 22.9 6 Nordeste 9 Nordeste 0 -- -- 48
2020-05-24 04:00:00 23 7 Nordeste 25 Norte 0 -- -- 53
2020-05-24 03:00:00 24.2 19 Norte 27 Norte 0 -- -- 50
2020-05-24 02:00:00 24.5 15 Norte 28 Norte 0 -- -- 50
2020-05-24 01:00:00 25.3 19 Norte 37 Norte 0 -- -- 47
2020-05-24 00:00:00 24.9 18 Norte 26 Norte 0 -- -- 46
2020-05-23 23:00:00 24.9 15 Norte 19 Norte 0 -- -- 42
2020-05-23 22:00:00 25.6 13 Norte 21 Norte 0 -- -- 41
2020-05-23 21:00:00 29.5 15 Norte 22 Noroeste 0 -- -- 32
2020-05-23 20:00:00 33 6 Oeste 18 Este 0 -- -- 26
2020-05-23 19:00:00 33.5 4 Oeste 17 Oeste 0 -- -- 23
2020-05-23 18:00:00 33.2 6 Noroeste 17 Oeste 0 -- -- 25
2020-05-23 17:00:00 33.6 8 Oeste 19 Sudoeste 0 -- -- 24
2020-05-23 16:00:00 32.9 5 Sudeste 20 Sudeste 0 -- -- 23
2020-05-23 15:00:00 32.5 9 Sur 19 Sur 0 -- -- 23
2020-05-23 14:00:00 32.1 9 Sur 19 Sur 0 -- -- 25
2020-05-23 13:00:00 31.5 6 Sur 17 Sur 0 -- -- 26
2020-05-23 12:00:00 30.3 5 Este 18 Este 0 -- -- 30
2020-05-23 11:00:00 28.6 6 Este 12 Este 0 -- -- 34
2020-05-23 10:00:00 26.4 3 Sur 12 Nordeste 0 -- -- 45
2020-05-23 09:00:00 24 4 Nordeste 11 Norte 0 -- -- 49
2020-05-23 08:00:00 22.4 7 Nordeste 13 Nordeste 0 -- -- 46
2020-05-23 07:00:00 21.9 10 Nordeste 15 Nordeste 0 -- -- 44
2020-05-23 06:00:00 22.3 13 Norte 19 Norte 0 -- -- 44
2020-05-23 05:00:00 21.8 15 Norte 19 Nordeste 0 -- -- 47
2020-05-23 04:00:00 21.3 12 Norte 19 Norte 0 -- -- 51
2020-05-23 03:00:00 21.4 15 Norte 23 Norte 0 -- -- 52
2020-05-23 02:00:00 21.8 14 Norte 19 Norte 0 -- -- 55
2020-05-23 01:00:00 22 13 Norte 17 Norte 0 -- -- 53
2020-05-23 00:00:00 22.2 11 Norte 19 Norte 0 -- -- 50
2020-05-22 23:00:00 22.8 13 Norte 17 Norte 0 -- -- 44
2020-05-22 22:00:00 25.9 5 Noroeste 13 Noroeste 0 -- -- 34
2020-05-22 21:00:00 29 6 Noroeste 17 Oeste 0 -- -- 28
2020-05-22 20:00:00 32 5 Oeste 15 Oeste 0 -- -- 19
2020-05-22 19:00:00 32.1 6 Noroeste 15 Oeste 0 -- -- 17
2020-05-22 18:00:00 32.1 7 Sudoeste 16 Sudoeste 0 -- -- 16
2020-05-22 17:00:00 32.2 8 Oeste 17 Oeste 0 -- -- 17
2020-05-22 16:00:00 31.8 8 Oeste 22 Sudoeste 0 -- -- 19
2020-05-22 15:00:00 31.4 9 Sudoeste 25 Sudoeste 0 -- -- 19
2020-05-22 14:00:00 31.1 10 Oeste 21 Oeste 0 -- -- 17
2020-05-22 13:00:00 29.9 5 Sur 15 Sur 0 -- -- 25
2020-05-22 12:00:00 28.8 4 Este 12 Este 0 -- -- 30
2020-05-22 11:00:00 27.3 6 Este 10 Este 0 -- -- 33
2020-05-22 10:00:00 24.6 3 Norte 7 Norte 0 -- -- 43
2020-05-22 09:00:00 22.7 3 Norte 5 Norte 0 -- -- 50
2020-05-22 08:00:00 21.8 0 Calma 14 Este 0 -- -- 44
2020-05-22 07:00:00 22.1 9 Este 12 Este 0 -- -- 42
2020-05-22 06:00:00 21.4 8 Nordeste 10 Nordeste 0 -- -- 44
2020-05-22 05:00:00 20.8 6 Nordeste 15 Nordeste 0 -- -- 51
2020-05-22 04:00:00 20.7 10 Nordeste 13 Nordeste 0 -- -- 52
2020-05-22 03:00:00 20.7 6 Nordeste 10 Norte 0 -- -- 50
2020-05-22 02:00:00 20.5 9 Norte 13 Nordeste 0 -- -- 48
2020-05-22 01:00:00 21.9 2 Norte 5 Noroeste 0 -- -- 43
2020-05-22 00:00:00 22.6 2 Noroeste 6 Noroeste 0 -- -- 40
2020-05-21 23:00:00 23.6 4 Oeste 10 Oeste 0 -- -- 36
2020-05-21 22:00:00 24.8 6 Oeste 13 Oeste 0 -- -- 33
2020-05-21 21:00:00 27.5 7 Sudoeste 16 Sudoeste 0 -- -- 33
2020-05-21 20:00:00 29.3 10 Sudoeste 22 Sudoeste 0 -- -- 30
2020-05-21 19:00:00 30.9 9 Oeste 17 Sudoeste 0 -- -- 20
2020-05-21 18:00:00 31 8 Sudoeste 19 Sudoeste 0 -- -- 21
2020-05-21 17:00:00 31.1 10 Sudoeste 19 Sudoeste 0 -- -- 21
2020-05-21 16:00:00 30.8 11 Sudoeste 22 Sudoeste 0 -- -- 19
2020-05-21 15:00:00 30.3 8 Sudoeste 24 Sur 0 -- -- 29
2020-05-21 14:00:00 29.7 5 Norte 22 Sur 0 -- -- 29
2020-05-21 13:00:00 29.3 6 Oeste 17 Noroeste 0 -- -- 28
2020-05-21 12:00:00 28.4 4 Noroeste 13 Oeste 0 -- -- 27
2020-05-21 11:00:00 27 6 Norte 11 Nordeste 0 -- -- 27
2020-05-21 10:00:00 26 4 Norte 6 Norte 0 -- -- 43
2020-05-21 09:00:00 23.1 6 Norte 7 Norte 0 -- -- 52
2020-05-21 08:00:00 21.9 5 Nordeste 10 Nordeste 0 -- -- 51
2020-05-21 07:00:00 21 8 Nordeste 12 Nordeste 0 -- -- 54
2020-05-21 06:00:00 21.4 10 Nordeste 13 Nordeste 0 -- -- 51
2020-05-21 05:00:00 21 10 Nordeste 16 Nordeste 0 -- -- 52
2020-05-21 04:00:00 20.8 13 Nordeste 15 Nordeste 0 -- -- 53
2020-05-21 03:00:00 21.1 13 Norte 15 Norte 0 -- -- 54
2020-05-21 02:00:00 19.6 8 Norte 12 Norte 0 -- -- 63
2020-05-21 01:00:00 20.6 5 Norte 10 Norte 0 -- -- 57
2020-05-21 00:00:00 21.7 3 Norte 8 Norte 0 -- -- 52
2020-05-20 23:00:00 23 4 Oeste 9 Oeste 0 -- -- 47
2020-05-20 22:00:00 23.7 6 Oeste 18 Sudoeste 0 -- -- 44
2020-05-20 21:00:00 27.7 8 Oeste 18 Oeste 0 -- -- 37
2020-05-20 20:00:00 29.3 10 Oeste 17 Oeste 0 -- -- 31
2020-05-20 19:00:00 29.8 9 Oeste 23 Sur 0 -- -- 32
2020-05-20 18:00:00 30.2 6 Sudoeste 19 Oeste 0 -- -- 29
2020-05-20 17:00:00 29.9 10 Sudoeste 20 Sudoeste 0 -- -- 27
2020-05-20 16:00:00 29.7 9 Sudoeste 21 Sudoeste 0 -- -- 25
2020-05-20 15:00:00 29.3 10 Oeste 23 Sudoeste 0 -- -- 28
2020-05-20 14:00:00 28.4 11 Sudoeste 21 Oeste 0 -- -- 33
2020-05-20 13:00:00 28.8 9 Oeste 16 Oeste 0 -- -- 32
2020-05-20 12:00:00 27.8 8 Sur 14 Sur 0 -- -- 31
2020-05-20 11:00:00 27.2 6 Este 12 Este 0 -- -- 35
2020-05-20 10:00:00 25.5 6 Nordeste 10 Nordeste 0 -- -- 41
2020-05-20 09:00:00 22.8 6 Nordeste 9 Nordeste 0 -- -- 47
2020-05-20 08:00:00 20.9 8 Nordeste 14 Nordeste 0 -- -- 46
2020-05-20 07:00:00 19.2 8 Nordeste 10 Nordeste 0 -- -- 51
2020-05-20 06:00:00 18.1 4 Norte 9 Norte 0 -- -- 60
2020-05-20 05:00:00 18.1 6 Norte 13 Noroeste 0 -- -- 63
2020-05-20 04:00:00 19.1 4 Norte 10 Norte 0 -- -- 61
2020-05-20 03:00:00 19.7 4 Norte 13 Noroeste 0 -- -- 58
2020-05-20 02:00:00 19.7 4 Norte 9 Norte 0 -- -- 58
2020-05-20 01:00:00 19.6 4 Norte 10 Norte 0 -- -- 58
2020-05-20 00:00:00 20.4 5 Norte 10 Noroeste 0 -- -- 56
2020-05-19 23:00:00 21.9 4 Noroeste 12 Oeste 0 -- -- 50
2020-05-19 22:00:00 22.8 4 Oeste 12 Oeste 0 -- -- 49
2020-05-19 21:00:00 25 8 Sudoeste 21 Sudoeste 0 -- -- 44
2020-05-19 20:00:00 27.2 14 Sudoeste 22 Sudoeste 0 -- -- 39
2020-05-19 19:00:00 29 10 Sur 17 Sur 0 -- -- 30
2020-05-19 18:00:00 29.2 7 Sur 19 Sur 0 -- -- 29
2020-05-19 17:00:00 29 8 Sur 22 Sur 0 -- -- 30
2020-05-19 16:00:00 28.8 8 Sudoeste 23 Sur 0 -- -- 28
2020-05-19 15:00:00 28 6 Este 17 Este 0 -- -- 28
2020-05-19 14:00:00 27.8 3 Este 16 Sudeste 0 -- -- 34
2020-05-19 13:00:00 27 6 Sudeste 17 Sur 0 -- -- 31
2020-05-19 12:00:00 26.4 6 Sudeste 13 Nordeste 0 -- -- 37
2020-05-19 11:00:00 25.5 6 Este 15 Este 0 -- -- 36
2020-05-19 10:00:00 24.1 0 Calma 7 Nordeste 0 -- -- 49
2020-05-19 09:00:00 21.2 7 Nordeste 14 Nordeste 0 -- -- 50
2020-05-19 08:00:00 18.4 7 Nordeste 10 Nordeste 0 -- -- 53
2020-05-19 07:00:00 17.7 6 Norte 10 Nordeste 0 -- -- 55
2020-05-19 06:00:00 18.1 9 Nordeste 14 Nordeste 0 -- -- 53
2020-05-19 05:00:00 16.8 6 Norte 11 Norte 0 -- -- 62
2020-05-19 04:00:00 18.2 8 Nordeste 16 Norte 0 -- -- 55
2020-05-19 03:00:00 17.8 10 Norte 12 Norte 0 -- -- 58
2020-05-19 02:00:00 17.5 7 Nordeste 9 Nordeste 0 -- -- 67
2020-05-19 01:00:00 17.8 4 Norte 6 Norte 0 -- -- 66
2020-05-19 00:00:00 18.1 2 Sur 3 Norte 0 -- -- 66
2020-05-18 23:00:00 19.3 3 Noroeste 13 Sur 0 -- -- 62
2020-05-18 22:00:00 20.1 8 Sur 18 Sudoeste 0 -- -- 62
2020-05-18 21:00:00 24.2 13 Sudoeste 19 Sudoeste 0 -- -- 49
2020-05-18 20:00:00 26.4 8 Sudoeste 17 Sudoeste 0 -- -- 36
2020-05-18 19:00:00 26.9 10 Oeste 21 Oeste 0 -- -- 33
2020-05-18 18:00:00 26.5 10 Noroeste 22 Oeste 0 -- -- 35
2020-05-18 17:00:00 26.2 9 Sur 19 Noroeste 0 -- -- 32
2020-05-18 16:00:00 25.8 5 Norte 17 Oeste 0 -- -- 34
2020-05-18 15:00:00 25.1 4 Noroeste 18 Oeste 0 -- -- 38
2020-05-18 14:00:00 23.8 5 Noroeste 18 Oeste 0 -- -- 44
2020-05-18 13:00:00 23.4 6 Noroeste 14 Sur 0 -- -- 49
2020-05-18 12:00:00 22.8 4 Sudeste 12 Sudoeste 0 -- -- 55
2020-05-18 11:00:00 20.9 8 Sur 13 Sur 0 -- -- 69
2020-05-18 10:00:00 19.6 3 Sur 6 Sur 0 -- -- 73
2020-05-18 09:00:00 17.1 4 Nordeste 5 Nordeste 0 -- -- 88
2020-05-18 08:00:00 13.8 3 Norte 6 Norte 0 -- -- 95
2020-05-18 07:00:00 13.3 4 Nordeste 10 Noroeste 0 -- -- 95
2020-05-18 06:00:00 14 5 Norte 9 Este 0 -- -- 90
2020-05-18 05:00:00 14.3 4 Sur 7 Sudeste 0 -- -- 90
2020-05-18 04:00:00 14.5 0 Calma 4 Sur 0 -- -- 89
2020-05-18 03:00:00 15.4 3 Norte 6 Nordeste 0 -- -- 84
2020-05-18 02:00:00 14.9 3 Nordeste 5 Norte 0 -- -- 86
2020-05-18 01:00:00 15.9 2 Norte 6 Norte 0 -- -- 85
2020-05-18 00:00:00 16.3 3 Norte 5 Norte 0 -- -- 81
2020-05-17 23:00:00 16.6 3 Oeste 5 Sudoeste 0 -- -- 83
2020-05-17 22:00:00 16.9 0 Calma 18 Sur 0 -- -- 85
2020-05-17 21:00:00 18.3 10 Sur 17 Sudeste 0 -- -- 78
2020-05-17 20:00:00 20.5 9 Sur 21 Sudeste 0 -- -- 62
2020-05-17 19:00:00 21.5 5 Oeste 19 Sudoeste 0 -- -- 60
2020-05-17 18:00:00 22.7 5 Sudoeste 13 Oeste 0 -- -- 57
2020-05-17 17:00:00 22 7 Noroeste 17 Sudoeste 0 -- -- 57
2020-05-17 16:00:00 21.5 9 Oeste 20 Sudoeste 0 -- -- 65
2020-05-17 15:00:00 20.9 6 Sur 14 Sudeste 0 -- -- 60
2020-05-17 14:00:00 19.2 5 Sur 17 Sudeste 0.2 -- -- 78
2020-05-17 13:00:00 19.5 9 Sur 24 Sur 0 -- -- 71
2020-05-17 12:00:00 18.4 11 Sur 18 Sudeste 0 -- -- 79
2020-05-17 11:00:00 17.6 6 Sudeste 13 Sudeste 0 -- -- 85
2020-05-17 10:00:00 16.3 5 Este 14 Este 0 -- -- 87
2020-05-17 09:00:00 14.7 5 Sudeste 12 Sudeste 0 -- -- 92
2020-05-17 08:00:00 13.4 6 Sudeste 10 Este 0 -- -- 96
2020-05-17 07:00:00 12.7 5 Sudeste 6 Sudeste 0 -- -- 95
2020-05-17 06:00:00 12.5 0 Calma 10 Este 0 -- -- 94
2020-05-17 05:00:00 13.1 3 Nordeste 6 Nordeste 0 -- -- 95
2020-05-17 04:00:00 13.2 3 Sur 8 Sudeste 0 -- -- 94
2020-05-17 03:00:00 14 5 Norte 8 Nordeste 0 -- -- 94
2020-05-17 02:00:00 14 0 Calma 7 Oeste 0 -- -- 92
2020-05-17 01:00:00 14.2 4 Oeste 8 Oeste 0 -- -- 92
2020-05-17 00:00:00 14 4 Sur 12 Sur 0 -- -- 92
2020-05-16 23:00:00 14.6 6 Sur 9 Sudoeste 0 -- -- 90
2020-05-16 22:00:00 15.1 3 Oeste 15 Sur 0 -- -- 87
2020-05-16 21:00:00 16.6 5 Sur 13 Sudeste 0 -- -- 79
2020-05-16 20:00:00 16.1 6 Sur 14 Sur 0 -- -- 80
2020-05-16 19:00:00 16.3 5 Este 18 Este 0.6 -- -- 77
2020-05-16 18:00:00 19.9 8 Oeste 15 Sudoeste 0 -- -- 57
2020-05-16 17:00:00 20 9 Sudoeste 20 Sur 0 -- -- 58
2020-05-16 16:00:00 18.6 9 Sudoeste 15 Sudoeste 0 -- -- 62
2020-05-16 15:00:00 18.1 7 Sudoeste 23 Noroeste 0 -- -- 62
2020-05-16 14:00:00 19.1 4 Sur 16 Sur 0 -- -- 58
2020-05-16 13:00:00 18.1 6 Sudeste 17 Sudeste 0 -- -- 66
2020-05-16 12:00:00 17 4 Sur 14 Sur 0 -- -- 68
2020-05-16 11:00:00 16.9 10 Sur 14 Sur 0 -- -- 69
2020-05-16 10:00:00 15 3 Este 12 Este 0 -- -- 80
2020-05-16 09:00:00 13.6 4 Este 14 Este 0 -- -- 81
2020-05-16 08:00:00 12.5 8 Este 11 Este 0 -- -- 82
2020-05-16 07:00:00 12 8 Este 11 Nordeste 0 -- -- 83
2020-05-16 06:00:00 11.9 7 Nordeste 14 Nordeste 0 -- -- 87
2020-05-16 05:00:00 11.5 6 Norte 13 Norte 0.2 -- -- 90
2020-05-16 04:00:00 11.5 6 Norte 8 Norte 0 -- -- 94
2020-05-16 03:00:00 12.1 4 Norte 7 Norte 0 -- -- 94
2020-05-16 02:00:00 12.1 0 Calma 8 Oeste 0 -- -- 92
2020-05-16 01:00:00 12.6 2 Oeste 9 Oeste 0 -- -- 91
2020-05-16 00:00:00 12.6 3 Oeste 11 Sudoeste 0 -- -- 92
2020-05-15 23:00:00 12.6 3 Norte 12 Norte 0 -- -- 90
2020-05-15 22:00:00 13.1 11 Norte 23 Norte 0 -- -- 90
2020-05-15 21:00:00 13.4 4 Noroeste 16 Sur 0 -- -- 92
2020-05-15 20:00:00 13.8 5 Oeste 20 Nordeste 6.6 -- -- 81
2020-05-15 19:00:00 13.8 14 Nordeste 37 Nordeste 3.4 -- -- 74
2020-05-15 18:00:00 18.3 10 Oeste 22 Noroeste 0 -- -- 58
2020-05-15 17:00:00 19.4 8 Sudoeste 18 Sudoeste 0 -- -- 42
2020-05-15 16:00:00 18.4 10 Sur 17 Sudeste 0 -- -- 56
2020-05-15 15:00:00 18.1 3 Sur 23 Sur 0 -- -- 58
2020-05-15 14:00:00 17.8 10 Sur 24 Sur 0 -- -- 59
2020-05-15 13:00:00 17.1 8 Sudeste 21 Sudeste 0 -- -- 64
2020-05-15 12:00:00 15.9 9 Sudeste 23 Sudeste 0 -- -- 70
2020-05-15 11:00:00 14.2 8 Sudeste 19 Este 0 -- -- 80
2020-05-15 10:00:00 12.8 9 Este 22 Este 0 -- -- 86
2020-05-15 09:00:00 11.7 8 Este 19 Este 0 -- -- 90
2020-05-15 08:00:00 11.1 9 Este 21 Este 0 -- -- 93
2020-05-15 07:00:00 10.9 7 Este 18 Este 0.2 -- -- 95
2020-05-15 06:00:00 11 6 Este 17 Sudeste 0 -- -- 96
2020-05-15 05:00:00 11.2 8 Sudeste 30 Sur 0 -- -- 96
2020-05-15 04:00:00 11.5 12 Sudeste 30 Sur 0 -- -- 97
2020-05-15 03:00:00 11.4 11 Sudeste 28 Sur 0 -- -- 97
2020-05-15 02:00:00 11.3 8 Sur 21 Sudeste 0 -- -- 97
2020-05-15 01:00:00 11.1 8 Sudeste 23 Sudeste 0 -- -- 95
2020-05-15 00:00:00 11.4 8 Sudeste 23 Sudeste 0 -- -- 95
2020-05-14 23:00:00 11.2 8 Sur 25 Sur 0 -- -- 94
2020-05-14 22:00:00 11.7 15 Sur 32 Sur 0 -- -- 94
2020-05-14 21:00:00 12.2 12 Sur 36 Sur 0.2 -- -- 92
2020-05-14 20:00:00 13.6 20 Sur 51 Sur 0 -- -- 83
2020-05-14 19:00:00 14.8 19 Sur 33 Sur 0 -- -- 84
2020-05-14 18:00:00 14.2 22 Sur 40 Sur 0 -- -- 85
2020-05-14 17:00:00 14 23 Sur 41 Sudoeste 0 -- -- 86
2020-05-14 16:00:00 14.5 21 Sur 35 Sur 0 -- -- 90
2020-05-14 15:00:00 12.6 18 Sur 36 Sur 0.2 -- -- 95
2020-05-14 14:00:00 11.9 15 Sur 32 Sur 2 -- -- 96
2020-05-14 13:00:00 11.7 8 Sur 23 Sudeste 4.8 -- -- 96
2020-05-14 12:00:00 11.8 14 Sur 27 Sur 0.2 -- -- 98
2020-05-14 11:00:00 10.9 9 Sur 22 Sur 0.2 -- -- 98
2020-05-14 10:00:00 10.4 12 Sur 26 Sudeste 0 -- -- 97
2020-05-14 09:00:00 10.1 10 Sudeste 26 Sudeste 0.4 -- -- 98
2020-05-14 08:00:00 9.9 10 Sudeste 21 Sudeste 1.2 -- -- 98
2020-05-14 07:00:00 9.8 7 Sudeste 18 Sudeste 0.6 -- -- 98
2020-05-14 06:00:00 9.7 5 Este 14 Sudeste 0.6 -- -- 97
2020-05-14 05:00:00 9.4 5 Este 14 Este 0 -- -- 97
2020-05-14 04:00:00 9.2 5 Sudeste 15 Sudeste 0 -- -- 96
2020-05-14 03:00:00 10.2 5 Sudeste 13 Sudeste 0.2 -- -- 97
2020-05-14 02:00:00 10 5 Este 14 Este 0.2 -- -- 97
2020-05-14 01:00:00 10.2 7 Sudeste 15 Sudeste 0 -- -- 97
2020-05-14 00:00:00 10.2 6 Sudeste 12 Sur 0 -- -- 97
2020-05-13 23:00:00 10.3 8 Sudoeste 17 Sudoeste 0 -- -- 96
2020-05-13 22:00:00 10.5 8 Sur 18 Sur 0 -- -- 95
2020-05-13 21:00:00 11 8 Sudoeste 13 Sudoeste 0 -- -- 93
2020-05-13 20:00:00 11.7 5 Sudoeste 10 Sudoeste 0.6 -- -- 92
2020-05-13 19:00:00 11.9 3 Sudoeste 40 Sur 1.4 -- -- 93
2020-05-13 18:00:00 14.4 30 Sur 45 Sur 0 -- -- 77
2020-05-13 17:00:00 14.8 16 Sur 48 Sur 0.4 -- -- 78
2020-05-13 16:00:00 16.5 18 Sur 36 Sur 0 -- -- 67
2020-05-13 15:00:00 15.4 14 Sur 32 Sur 0.8 -- -- 82
2020-05-13 14:00:00 16 15 Sur 33 Sur 0.6 -- -- 79
2020-05-13 13:00:00 14.8 9 Sudeste 30 Sur 0 -- -- 80
2020-05-13 12:00:00 15 10 Sur 23 Sudeste 0 -- -- 76
2020-05-13 11:00:00 14 10 Sur 21 Sudoeste 0 -- -- 84
2020-05-13 10:00:00 12.6 7 Sur 14 Sudeste 0 -- -- 93
2020-05-13 09:00:00 11.3 4 Sudeste 9 Este 0 -- -- 97
2020-05-13 08:00:00 9.7 2 Este 9 Este 0 -- -- 97
2020-05-13 07:00:00 9.9 4 Sudeste 9 Este 0 -- -- 96
2020-05-13 06:00:00 10 0 Calma 4 Sudeste 0 -- -- 96
2020-05-13 05:00:00 9.9 2 Sur 9 Sur 0 -- -- 96
2020-05-13 04:00:00 10 5 Sur 9 Sur 0 -- -- 95
2020-05-13 03:00:00 10.5 3 Sudoeste 8 Sur 0 -- -- 94
2020-05-13 02:00:00 11.1 4 Sur 12 Sudoeste 0 -- -- 91
2020-05-13 01:00:00 12 6 Sudoeste 16 Sur 0 -- -- 89
2020-05-13 00:00:00 12 10 Sur 18 Sur 0.2 -- -- 87
2020-05-12 23:00:00 12.2 11 Sur 23 Sur 0 -- -- 84
2020-05-12 22:00:00 12.6 12 Sur 20 Sur 0 -- -- 82
2020-05-12 21:00:00 13.4 12 Sur 28 Sur 0 -- -- 78
2020-05-12 20:00:00 14.2 18 Sur 28 Sur 0 -- -- 82
2020-05-12 19:00:00 15.4 14 Sur 29 Sur 0 -- -- 78
2020-05-12 18:00:00 14.5 13 Sur 31 Sur 0 -- -- 80
2020-05-12 17:00:00 15.5 12 Sur 23 Sur 0.2 -- -- 80
2020-05-12 16:00:00 12.9 5 Sudeste 26 Sur 8 -- -- 92
2020-05-12 15:00:00 13.2 14 Sur 35 Sur 0.2 -- -- 83
2020-05-12 14:00:00 16.1 15 Sur 27 Sur 0 -- -- 72
2020-05-12 13:00:00 16.4 13 Sur 24 Sur 0 -- -- 64
2020-05-12 12:00:00 15.5 15 Sur 25 Sur 0 -- -- 74
2020-05-12 11:00:00 11.9 6 Sudeste 14 Sur 1.2 -- -- 91
2020-05-12 10:00:00 10.1 4 Sur 21 Sur 3.8 -- -- 96
2020-05-12 09:00:00 12.1 2 Sudeste 8 Este 0 -- -- 97
2020-05-12 08:00:00 11.7 6 Este 13 Este 0 -- -- 96
2020-05-12 07:00:00 11.9 5 Este 8 Este 0 -- -- 96
2020-05-12 06:00:00 12.1 0 Calma 6 Este 0 -- -- 96
2020-05-12 05:00:00 12.2 0 Calma 5 Este 0 -- -- 96
2020-05-12 04:00:00 12.1 0 Calma 7 Sudoeste 0 -- -- 95
2020-05-12 03:00:00 12.4 0 Calma 8 Sur 0 -- -- 94
2020-05-12 02:00:00 12.5 0 Calma 10 Sudeste 0 -- -- 93
2020-05-12 01:00:00 12.9 4 Sur 8 Sur 0 -- -- 91
2020-05-12 00:00:00 13.3 4 Sur 15 Sur 0 -- -- 90
2020-05-11 23:00:00 13.7 8 Sur 16 Sur 0 -- -- 88
2020-05-11 22:00:00 14.2 7 Sur 21 Sur 0 -- -- 84
2020-05-11 21:00:00 15.2 14 Sur 37 Sur 0 -- -- 79
2020-05-11 20:00:00 16.8 19 Sur 32 Sur 0 -- -- 75
2020-05-11 19:00:00 17.7 20 Sudoeste 35 Sur 0 -- -- 67
2020-05-11 18:00:00 17.8 21 Sudoeste 41 Sudoeste 0 -- -- 68
2020-05-11 17:00:00 17.5 26 Sudoeste 45 Sur 0 -- -- 68
2020-05-11 16:00:00 18.6 26 Sudoeste 45 Sur 0 -- -- 65
2020-05-11 15:00:00 18.9 22 Sudoeste 43 Sudoeste 0 -- -- 64
2020-05-11 14:00:00 18.3 22 Sudoeste 43 Sur 0 -- -- 63
2020-05-11 13:00:00 18.1 18 Sudoeste 42 Sudoeste 0 -- -- 71
2020-05-11 12:00:00 17.5 23 Sudoeste 42 Sudoeste 0 -- -- 72
2020-05-11 11:00:00 16 21 Sudoeste 33 Sudoeste 0 -- -- 82
2020-05-11 10:00:00 14.8 12 Oeste 28 Sudoeste 0 -- -- 89
2020-05-11 09:00:00 13.9 18 Sudoeste 45 Sudoeste 1 -- -- 95
2020-05-11 08:00:00 13.9 28 Sudoeste 52 Sudoeste 0.4 -- -- 95
2020-05-11 07:00:00 13.7 20 Sur 42 Sudoeste 0 -- -- 96
2020-05-11 06:00:00 13.5 25 Sur 41 Sur 0.2 -- -- 96
2020-05-11 05:00:00 13.3 24 Sur 37 Sudoeste 1.2 -- -- 96
2020-05-11 04:00:00 13.1 17 Sur 27 Sur 0 -- -- 94
2020-05-11 03:00:00 12.9 12 Sudoeste 22 Sudoeste 0 -- -- 91
2020-05-11 02:00:00 12.8 9 Sudoeste 16 Sudoeste 0 -- -- 90
2020-05-11 01:00:00 12.7 8 Sur 12 Sudoeste 0 -- -- 85
2020-05-11 00:00:00 13.3 5 Oeste 15 Oeste 0 -- -- 81
2020-05-10 23:00:00 13.9 8 Oeste 24 Oeste 0 -- -- 77
2020-05-10 22:00:00 14.8 14 Oeste 27 Oeste 0 -- -- 76
2020-05-10 21:00:00 15.8 13 Oeste 24 Noroeste 0 -- -- 71
2020-05-10 20:00:00 16.8 11 Oeste 31 Noroeste 0 -- -- 64
2020-05-10 19:00:00 17.9 16 Oeste 32 Oeste 0 -- -- 63
2020-05-10 18:00:00 18.1 13 Oeste 28 Oeste 0 -- -- 68
2020-05-10 17:00:00 17.5 16 Oeste 32 Oeste 0 -- -- 67
2020-05-10 16:00:00 17.3 16 Oeste 39 Noroeste 0 -- -- 71
2020-05-10 15:00:00 17.2 13 Oeste 28 Oeste 0.2 -- -- 72
2020-05-10 14:00:00 17.6 11 Oeste 31 Sudoeste 0 -- -- 69
2020-05-10 13:00:00 16.8 13 Sudoeste 24 Sudoeste 0 -- -- 74
2020-05-10 12:00:00 14.7 11 Noroeste 25 Sudoeste 0 -- -- 83
2020-05-10 11:00:00 13.6 12 Sudoeste 22 Sudoeste 0 -- -- 94
2020-05-10 10:00:00 12.2 9 Sudoeste 17 Sudoeste 0.4 -- -- 96
2020-05-10 09:00:00 11.8 8 Oeste 18 Sudoeste 0 -- -- 97
2020-05-10 08:00:00 10.9 8 Sudoeste 24 Sudoeste 1.2 -- -- 97
2020-05-10 07:00:00 10.9 8 Sur 12 Sudoeste 0 -- -- 97
2020-05-10 06:00:00 10.8 4 Sur 6 Sur 0 -- -- 96
2020-05-10 05:00:00 10.9 2 Noroeste 8 Noroeste 0 -- -- 96
2020-05-10 04:00:00 11 4 Oeste 11 Oeste 0 -- -- 95
2020-05-10 03:00:00 11.5 3 Noroeste 15 Noroeste 0 -- -- 95
2020-05-10 02:00:00 12 5 Noroeste 13 Noroeste 0.2 -- -- 94
2020-05-10 01:00:00 12.5 7 Noroeste 17 Noroeste 0 -- -- 92
2020-05-10 00:00:00 13.4 5 Oeste 12 Oeste 0 -- -- 95
2020-05-09 23:00:00 13.3 5 Oeste 24 Sudoeste 1.6 -- -- 93
2020-05-09 22:00:00 13.8 9 Sudoeste 22 Sur 0.2 -- -- 95
2020-05-09 21:00:00 14.3 9 Sur 13 Sur 0 -- -- 93
2020-05-09 20:00:00 14.5 6 Sur 10 Sur 0.2 -- -- 92
2020-05-09 19:00:00 13.5 7 Sur 20 Sur 2 -- -- 96
2020-05-09 18:00:00 13.4 11 Sur 27 Sudoeste 6.6 -- -- 94
2020-05-09 17:00:00 14 15 Sur 37 Sur 1.6 -- -- 89
2020-05-09 16:00:00 17.8 20 Sur 39 Sur 0 -- -- 64
2020-05-09 15:00:00 18.6 26 Sudoeste 43 Sudoeste 0 -- -- 59
2020-05-09 14:00:00 18.6 15 Sudoeste 32 Sudoeste 0 -- -- 58
2020-05-09 13:00:00 18.3 20 Sur 31 Sur 0 -- -- 57
2020-05-09 12:00:00 16.6 16 Sur 23 Sur 0 -- -- 64
2020-05-09 11:00:00 15 10 Sur 22 Sudoeste 0 -- -- 76
2020-05-09 10:00:00 14.4 10 Sudoeste 18 Sudoeste 0 -- -- 81
2020-05-09 09:00:00 12.9 4 Sudoeste 13 Oeste 0 -- -- 93
2020-05-09 08:00:00 12.6 6 Sudoeste 13 Oeste 0 -- -- 95
2020-05-09 07:00:00 13.4 6 Sudoeste 11 Sur 0 -- -- 95
2020-05-09 06:00:00 13.2 3 Sudeste 9 Sudeste 0 -- -- 94
2020-05-09 05:00:00 13.5 3 Sur 15 Sudeste 0 -- -- 93
2020-05-09 04:00:00 13.6 7 Sur 12 Sur 0 -- -- 92
2020-05-09 03:00:00 13.8 4 Sudeste 10 Sur 0 -- -- 93
2020-05-09 02:00:00 13.8 6 Sur 10 Sudeste 0 -- -- 93
2020-05-09 01:00:00 13.8 6 Sur 14 Sur 0 -- -- 93
2020-05-09 00:00:00 13.5 9 Sur 15 Sur 0 -- -- 93
2020-05-08 23:00:00 14 7 Sur 13 Sur 0 -- -- 89
2020-05-08 22:00:00 14.6 8 Sur 20 Sur 0 -- -- 84
2020-05-08 21:00:00 16.6 9 Sur 22 Sudoeste 0 -- -- 76
2020-05-08 20:00:00 18.2 15 Sudoeste 24 Sudoeste 0 -- -- 66
2020-05-08 19:00:00 20.3 15 Sur 36 Sur 0 -- -- 55
2020-05-08 18:00:00 22.6 18 Sudoeste 32 Sudoeste 0 -- -- 49
2020-05-08 17:00:00 22.6 19 Sur 36 Sur 0 -- -- 45
2020-05-08 16:00:00 23.3 24 Sur 41 Sudoeste 0 -- -- 47
2020-05-08 15:00:00 22.4 19 Sur 41 Sur 0 -- -- 53
2020-05-08 14:00:00 21.8 25 Sur 44 Sur 0 -- -- 51
2020-05-08 13:00:00 22 21 Sur 44 Sudoeste 0 -- -- 53
2020-05-08 12:00:00 21.5 18 Sur 32 Sur 0 -- -- 52
2020-05-08 11:00:00 19.4 20 Sur 39 Sur 0 -- -- 58
2020-05-08 10:00:00 17.7 16 Sur 34 Sur 0 -- -- 67
2020-05-08 09:00:00 16.3 7 Sur 11 Sur 0 -- -- 78
2020-05-08 08:00:00 14.2 6 Sur 12 Sur 0 -- -- 88
2020-05-08 07:00:00 13.6 3 Sur 10 Sur 0 -- -- 86
2020-05-08 06:00:00 13.3 4 Sur 8 Sur 0 -- -- 84
2020-05-08 05:00:00 13.6 0 Calma 5 Sur 0 -- -- 81
2020-05-08 04:00:00 14 3 Sur 11 Sur 0 -- -- 79
2020-05-08 03:00:00 14.5 0 Calma 4 Sur 0 -- -- 81
2020-05-08 02:00:00 15 0 Calma 12 Sur 0 -- -- 78
2020-05-08 01:00:00 16.4 9 Sur 15 Sur 0 -- -- 76
2020-05-08 00:00:00 17 10 Sur 14 Sur 0 -- -- 79
2020-05-07 23:00:00 18.2 5 Sur 12 Sudoeste 0 -- -- 76
2020-05-07 22:00:00 19.8 6 Sur 12 Sudoeste 0 -- -- 67
2020-05-07 21:00:00 22.3 8 Sur 17 Sur 0 -- -- 56
2020-05-07 20:00:00 23.5 13 Sur 24 Sudoeste 0 -- -- 53
2020-05-07 19:00:00 25.3 17 Sudoeste 32 Sudoeste 0 -- -- 49
2020-05-07 18:00:00 26.7 18 Sur 35 Sur 0 -- -- 36
2020-05-07 17:00:00 26.7 17 Sur 36 Sur 0 -- -- 35
2020-05-07 16:00:00 27 13 Sur 26 Sudoeste 0 -- -- 35
2020-05-07 15:00:00 26.5 12 Sudoeste 28 Sudoeste 0 -- -- 36
2020-05-07 14:00:00 25.9 7 Sudoeste 19 Sur 0 -- -- 39
2020-05-07 13:00:00 24.4 8 Sur 26 Sudeste 0 -- -- 38
2020-05-07 12:00:00 23.3 10 Sur 22 Sur 0 -- -- 43
2020-05-07 11:00:00 22.8 9 Sur 18 Este 0 -- -- 40
2020-05-07 10:00:00 19.8 9 Este 20 Este 0 -- -- 47
2020-05-07 09:00:00 19.1 13 Este 23 Este 0 -- -- 45
2020-05-07 08:00:00 19 6 Este 18 Este 0 -- -- 44
2020-05-07 07:00:00 19.6 9 Este 18 Este 0 -- -- 41
2020-05-07 06:00:00 19.6 9 Este 14 Este 0 -- -- 40
2020-05-07 05:00:00 19.3 11 Este 14 Este 0 -- -- 40
2020-05-07 04:00:00 18.5 7 Nordeste 13 Nordeste 0 -- -- 44
2020-05-07 03:00:00 19.4 10 Nordeste 14 Nordeste 0 -- -- 41
2020-05-07 02:00:00 19.3 10 Nordeste 17 Norte 0 -- -- 43
2020-05-07 01:00:00 19.5 15 Norte 25 Nordeste 0 -- -- 43
2020-05-07 00:00:00 20 16 Norte 27 Nordeste 0 -- -- 41
2020-05-06 23:00:00 20.5 20 Norte 25 Norte 0 -- -- 40
2020-05-06 22:00:00 20.6 11 Norte 18 Norte 0 -- -- 40
2020-05-06 21:00:00 22.4 14 Norte 29 Norte 0 -- -- 35
2020-05-06 20:00:00 24.9 13 Nordeste 24 Norte 0 -- -- 33
2020-05-06 19:00:00 25.1 14 Norte 26 Norte 0 -- -- 33
2020-05-06 18:00:00 25.6 14 Norte 27 Noroeste 0 -- -- 31
2020-05-06 17:00:00 25.3 16 Norte 30 Norte 0 -- -- 35
2020-05-06 16:00:00 25 18 Norte 27 Norte 0 -- -- 37
2020-05-06 15:00:00 24.2 9 Norte 25 Norte 0 -- -- 35
2020-05-06 14:00:00 23.6 13 Norte 26 Norte 0 -- -- 34
2020-05-06 13:00:00 22.3 11 Norte 23 Norte 0 -- -- 39
2020-05-06 12:00:00 21.3 9 Nordeste 19 Nordeste 0 -- -- 42
2020-05-06 11:00:00 19.8 12 Norte 21 Norte 0 -- -- 54
2020-05-06 10:00:00 17.8 15 Norte 21 Norte 0 -- -- 59
2020-05-06 09:00:00 15.9 12 Norte 21 Nordeste 0 -- -- 66
2020-05-06 08:00:00 13.8 13 Norte 17 Norte 0 -- -- 76
2020-05-06 07:00:00 13.4 8 Norte 18 Norte 0 -- -- 78
2020-05-06 06:00:00 14 15 Norte 19 Norte 0 -- -- 77
2020-05-06 05:00:00 13 8 Norte 12 Norte 0 -- -- 84
2020-05-06 04:00:00 13.5 7 Noroeste 10 Norte 0 -- -- 79
2020-05-06 03:00:00 14.4 9 Norte 20 Noroeste 0 -- -- 72
2020-05-06 02:00:00 15.2 14 Norte 23 Norte 0 -- -- 62
2020-05-06 01:00:00 14.9 11 Norte 17 Norte 0 -- -- 59
2020-05-06 00:00:00 15.4 12 Norte 19 Norte 0 -- -- 57
2020-05-05 23:00:00 17.2 15 Norte 24 Noroeste 0 -- -- 51
2020-05-05 22:00:00 18.3 17 Norte 23 Norte 0 -- -- 47
2020-05-05 21:00:00 20.7 15 Noroeste 26 Noroeste 0 -- -- 40
2020-05-05 20:00:00 23.7 8 Noroeste 21 Oeste 0 -- -- 31
2020-05-05 19:00:00 24.5 9 Oeste 20 Sudoeste 0 -- -- 29
2020-05-05 18:00:00 24.3 10 Oeste 19 Noroeste 0 -- -- 29
2020-05-05 17:00:00 24.2 10 Oeste 18 Oeste 0 -- -- 28
2020-05-05 16:00:00 23.6 6 Oeste 22 Sudoeste 0 -- -- 30
2020-05-05 15:00:00 22.7 8 Sudoeste 20 Oeste 0 -- -- 26
2020-05-05 14:00:00 22 8 Oeste 17 Sudoeste 0 -- -- 28
2020-05-05 13:00:00 21.1 7 Oeste 15 Sudoeste 0 -- -- 31
2020-05-05 12:00:00 19.7 5 Oeste 14 Oeste 0 -- -- 37
2020-05-05 11:00:00 18.2 3 Noroeste 9 Norte 0 -- -- 51
2020-05-05 10:00:00 16.3 5 Norte 12 Norte 0 -- -- 75
2020-05-05 09:00:00 13.6 6 Nordeste 10 Nordeste 0 -- -- 98
2020-05-05 08:00:00 12.5 7 Norte 12 Norte 0 -- -- 98
2020-05-05 07:00:00 11.8 4 Norte 7 Nordeste 0 -- -- 96
2020-05-05 06:00:00 12.4 5 Este 10 Este 0 -- -- 97
2020-05-05 05:00:00 12.9 4 Norte 9 Noroeste 0 -- -- 98
2020-05-05 04:00:00 13.2 4 Norte 8 Norte 0 -- -- 96
2020-05-05 03:00:00 13.9 6 Norte 10 Norte 0 -- -- 96
2020-05-05 02:00:00 14.2 5 Norte 9 Noroeste 0 -- -- 95
2020-05-05 01:00:00 14.8 4 Oeste 9 Sur 0 -- -- 93
2020-05-05 00:00:00 15.3 7 Sur 10 Sur 0 -- -- 91
2020-05-04 23:00:00 16.1 0 Calma 16 Sur 0 -- -- 89
2020-05-04 22:00:00 16.3 4 Sur 21 Sur 0 -- -- 89
2020-05-04 21:00:00 17.1 14 Sur 26 Sudoeste 0 -- -- 85
2020-05-04 20:00:00 18.9 19 Sur 36 Sudoeste 0 -- -- 75
2020-05-04 19:00:00 20.7 22 Sur 38 Sur 0 -- -- 66
2020-05-04 18:00:00 21.6 20 Sudoeste 36 Sudoeste 0 -- -- 62
2020-05-04 17:00:00 21.9 26 Sudoeste 40 Sudoeste 0 -- -- 59
2020-05-04 16:00:00 23.4 21 Sur 35 Sudoeste 0 -- -- 53
2020-05-04 15:00:00 23.6 18 Sur 31 Sur 0 -- -- 49
2020-05-04 14:00:00 23.2 20 Sudoeste 35 Sur 0 -- -- 46
2020-05-04 13:00:00 23.2 17 Sur 44 Sur 0 -- -- 44
2020-05-04 12:00:00 22.1 29 Sur 50 Sur 0 -- -- 51
2020-05-04 11:00:00 21.5 22 Sur 32 Sur 0 -- -- 53
2020-05-04 10:00:00 22.1 12 Sur 21 Sur 0 -- -- 43
2020-05-04 09:00:00 20.1 3 Sudeste 11 Sudeste 0 -- -- 46
2020-05-04 08:00:00 20.6 4 Sudeste 23 Este 0 -- -- 41
2020-05-04 07:00:00 21.6 8 Sudeste 21 Este 0 -- -- 38
2020-05-04 06:00:00 21.9 9 Sudeste 26 Este 0 -- -- 40
2020-05-04 05:00:00 22.5 9 Este 22 Este 0 -- -- 40
2020-05-04 04:00:00 22.1 6 Este 15 Este 0 -- -- 48
2020-05-04 03:00:00 22.6 10 Este 17 Este 0 -- -- 48
2020-05-04 02:00:00 23.3 5 Sudeste 12 Este 0 -- -- 44
2020-05-04 01:00:00 23.7 5 Sudeste 13 Sudeste 0 -- -- 46
2020-05-04 00:00:00 25.3 8 Este 17 Este 0 -- -- 41
2020-05-03 23:00:00 25.5 9 Este 16 Este 0 -- -- 40
2020-05-03 22:00:00 25.8 9 Este 12 Este 0 -- -- 41
2020-05-03 21:00:00 27.6 5 Sudeste 11 Sur 0 -- -- 40
2020-05-03 20:00:00 29 7 Sur 15 Sudeste 0 -- -- 35
2020-05-03 19:00:00 30.1 10 Sur 20 Sur 0 -- -- 31
2020-05-03 18:00:00 30.7 11 Sur 23 Sudoeste 0 -- -- 30
2020-05-03 17:00:00 30.6 7 Sur 24 Sur 0 -- -- 30
2020-05-03 16:00:00 30.1 9 Sur 28 Sur 0 -- -- 31
2020-05-03 15:00:00 29.8 13 Sur 24 Sur 0 -- -- 29
2020-05-03 14:00:00 29.1 13 Sur 25 Sudeste 0 -- -- 29
2020-05-03 13:00:00 28.2 12 Sudeste 28 Sudeste 0 -- -- 30
2020-05-03 12:00:00 26.7 11 Sudeste 30 Sudeste 0 -- -- 39
2020-05-03 11:00:00 25 10 Sudeste 25 Este 0 -- -- 43
2020-05-03 10:00:00 22.7 6 Este 17 Nordeste 0 -- -- 52
2020-05-03 09:00:00 20.7 9 Este 17 Este 0 -- -- 57
2020-05-03 08:00:00 19.2 10 Este 18 Este 0 -- -- 58
2020-05-03 07:00:00 19.8 12 Este 19 Este 0 -- -- 56
2020-05-03 06:00:00 20.3 12 Este 19 Este 0 -- -- 54
2020-05-03 05:00:00 20.7 12 Este 16 Este 0 -- -- 54
2020-05-03 04:00:00 20.8 11 Este 14 Este 0 -- -- 53
2020-05-03 03:00:00 20.5 9 Este 12 Este 0 -- -- 55
2020-05-03 02:00:00 19.7 8 Nordeste 13 Norte 0 -- -- 60
2020-05-03 01:00:00 20.3 9 Nordeste 14 Nordeste 0 -- -- 59
2020-05-03 00:00:00 20.4 4 Norte 8 Nordeste 0 -- -- 58
2020-05-02 23:00:00 21.1 0 Calma 6 Noroeste 0 -- -- 54
2020-05-02 22:00:00 23.1 3 Noroeste 6 Noroeste 0 -- -- 47
2020-05-02 21:00:00 26.6 3 Noroeste 10 Oeste 0 -- -- 37
2020-05-02 20:00:00 27.9 6 Oeste 14 Oeste 0 -- -- 32
2020-05-02 19:00:00 28.4 5 Sudoeste 13 Oeste 0 -- -- 33
2020-05-02 18:00:00 28.3 5 Oeste 15 Sudoeste 0 -- -- 28
2020-05-02 17:00:00 27.9 8 Oeste 20 Noroeste 0 -- -- 35
2020-05-02 16:00:00 27.3 6 Oeste 16 Oeste 0 -- -- 36
2020-05-02 15:00:00 26.5 6 Noroeste 15 Sudoeste 0 -- -- 41
2020-05-02 14:00:00 25.6 6 Noroeste 15 Sudoeste 0 -- -- 45
2020-05-02 13:00:00 24.5 4 Este 12 Sudoeste 0 -- -- 48
2020-05-02 12:00:00 22.9 5 Sur 13 Sudoeste 0 -- -- 52
2020-05-02 11:00:00 21.6 6 Sudoeste 12 Sudoeste 0 -- -- 60
2020-05-02 10:00:00 20.8 4 Sur 8 Sur 0 -- -- 67
2020-05-02 09:00:00 18.9 0 Calma 8 Este 0 -- -- 67
2020-05-02 08:00:00 14.3 2 Sudeste 4 Sudeste 0 -- -- 80
2020-05-02 07:00:00 14.8 2 Sudeste 4 Sudeste 0 -- -- 80
2020-05-02 06:00:00 15.1 0 Calma 5 Nordeste 0 -- -- 78
2020-05-02 05:00:00 15.1 4 Nordeste 10 Norte 0 -- -- 84
2020-05-02 04:00:00 15.4 6 Norte 10 Nordeste 0 -- -- 86
2020-05-02 03:00:00 15.2 5 Norte 8 Norte 0 -- -- 89
2020-05-02 02:00:00 15.9 6 Norte 17 Norte 0 -- -- 86
2020-05-02 01:00:00 16.5 10 Norte 13 Norte 0 -- -- 84
2020-05-02 00:00:00 16.4 8 Norte 12 Norte 0 -- -- 83
2020-05-01 23:00:00 17.4 7 Norte 11 Noroeste 0 -- -- 77
2020-05-01 22:00:00 18.8 7 Noroeste 15 Noroeste 0 -- -- 72
2020-05-01 21:00:00 21 7 Noroeste 22 Noroeste 0 -- -- 63
2020-05-01 20:00:00 23.1 9 Oeste 19 Oeste 0 -- -- 57
2020-05-01 19:00:00 24.2 10 Oeste 22 Sudoeste 0 -- -- 57
2020-05-01 18:00:00 24.6 11 Oeste 22 Oeste 0 -- -- 56
2020-05-01 17:00:00 24.8 10 Oeste 19 Sudoeste 0 -- -- 54
2020-05-01 16:00:00 24.5 8 Oeste 21 Sudoeste 0 -- -- 53
2020-05-01 15:00:00 23.4 7 Oeste 18 Oeste 0 -- -- 56
2020-05-01 14:00:00 22.4 8 Oeste 16 Sudoeste 0 -- -- 57
2020-05-01 13:00:00 21.4 8 Oeste 15 Sudoeste 0 -- -- 59
2020-05-01 12:00:00 19.7 5 Noroeste 16 Norte 0 -- -- 61
2020-05-01 11:00:00 18.2 6 Norte 12 Norte 0 -- -- 64
2020-05-01 10:00:00 16.3 5 Norte 10 Norte 0 -- -- 66
2020-05-01 09:00:00 14 5 Norte 12 Norte 0 -- -- 80
2020-05-01 08:00:00 11.5 6 Norte 11 Norte 0 -- -- 88
2020-05-01 07:00:00 11.6 5 Norte 10 Norte 0 -- -- 88
2020-05-01 06:00:00 11.6 4 Norte 5 Nordeste 0 -- -- 87
2020-05-01 05:00:00 12.3 5 Nordeste 7 Norte 0 -- -- 85
2020-05-01 04:00:00 11.5 5 Norte 6 Norte 0 -- -- 89
2020-05-01 03:00:00 12 4 Norte 10 Norte 0 -- -- 89
2020-05-01 02:00:00 12.6 5 Norte 8 Norte 0 -- -- 86
2020-05-01 01:00:00 13.6 4 Noroeste 8 Noroeste 0 -- -- 83
2020-05-01 00:00:00 14.1 2 Norte 6 Norte 0 -- -- 80
2020-04-30 23:00:00 14.6 6 Norte 12 Noroeste 0 -- -- 77
2020-04-30 22:00:00 15.6 9 Norte 20 Noroeste 0 -- -- 74
2020-04-30 21:00:00 17.1 10 Noroeste 18 Noroeste 0 -- -- 69
2020-04-30 20:00:00 19.3 7 Noroeste 17 Noroeste 0 -- -- 61
2020-04-30 19:00:00 20.3 9 Noroeste 19 Oeste 0 -- -- 59
2020-04-30 18:00:00 20.9 12 Noroeste 21 Oeste 0 -- -- 56
2020-04-30 17:00:00 20.3 9 Noroeste 23 Oeste 0 -- -- 54
2020-04-30 16:00:00 19.7 10 Oeste 22 Oeste 0 -- -- 55
2020-04-30 15:00:00 18.9 13 Noroeste 26 Noroeste 0 -- -- 59
2020-04-30 14:00:00 18.8 10 Oeste 23 Noroeste 0 -- -- 59
2020-04-30 13:00:00 18.1 14 Oeste 28 Oeste 0 -- -- 63
2020-04-30 12:00:00 17.3 12 Noroeste 25 Oeste 0 -- -- 69
2020-04-30 11:00:00 15.4 7 Norte 17 Norte 0 -- -- 79
2020-04-30 10:00:00 13.5 10 Norte 29 Noroeste 0.2 -- -- 94
2020-04-30 09:00:00 12.1 18 Noroeste 28 Noroeste 0.4 -- -- 96
2020-04-30 08:00:00 12.4 7 Sudoeste 17 Sudoeste 0 -- -- 96
2020-04-30 07:00:00 12.3 5 Sudoeste 13 Oeste 0 -- -- 93
2020-04-30 06:00:00 12.9 6 Sudoeste 15 Oeste 0 -- -- 92
2020-04-30 05:00:00 13 5 Oeste 12 Oeste 0 -- -- 92
2020-04-30 04:00:00 12.9 4 Oeste 10 Oeste 0 -- -- 93
2020-04-30 03:00:00 12.6 4 Oeste 11 Sudoeste 0 -- -- 93
2020-04-30 02:00:00 12.7 5 Oeste 10 Oeste 0 -- -- 92
2020-04-30 01:00:00 12.6 3 Sudoeste 8 Sur 0 -- -- 92
2020-04-30 00:00:00 13.4 4 Oeste 6 Sur 0 -- -- 89
2020-04-29 23:00:00 13.8 5 Sur 13 Sur 0 -- -- 86
2020-04-29 22:00:00 14.8 10 Sur 23 Sur 0 -- -- 78
2020-04-29 21:00:00 16.1 14 Sudoeste 30 Sudoeste 0 -- -- 66
2020-04-29 20:00:00 18 16 Sudoeste 26 Sudoeste 0 -- -- 56
2020-04-29 19:00:00 20 11 Sudoeste 32 Sudoeste 0 -- -- 48
2020-04-29 18:00:00 20.2 15 Oeste 27 Oeste 0 -- -- 41
2020-04-29 17:00:00 20.3 10 Oeste 26 Sudoeste 0 -- -- 41
2020-04-29 16:00:00 20.3 11 Oeste 26 Sudoeste 0 -- -- 39
2020-04-29 15:00:00 19.4 9 Noroeste 27 Sudoeste 0 -- -- 41
2020-04-29 14:00:00 18.4 12 Sudoeste 24 Sudoeste 0 -- -- 46
2020-04-29 13:00:00 18 12 Sudoeste 24 Sudoeste 0 -- -- 47
2020-04-29 12:00:00 17 13 Sudoeste 25 Sudoeste 0 -- -- 52
2020-04-29 11:00:00 15.7 10 Sudoeste 17 Sudoeste 0 -- -- 60
2020-04-29 10:00:00 14 6 Sur 11 Sudeste 0 -- -- 66
2020-04-29 09:00:00 13.9 2 Nordeste 6 Nordeste 0 -- -- 67
2020-04-29 08:00:00 10.6 5 Norte 8 Norte 0 -- -- 79
2020-04-29 07:00:00 10.5 6 Norte 11 Norte 0 -- -- 80
2020-04-29 06:00:00 9.6 5 Norte 7 Norte 0 -- -- 85
2020-04-29 05:00:00 9.6 4 Norte 9 Norte 0 -- -- 84
2020-04-29 04:00:00 10.7 8 Norte 12 Norte 0 -- -- 77
2020-04-29 03:00:00 10.3 3 Norte 13 Noroeste 0 -- -- 76
2020-04-29 02:00:00 10.7 4 Norte 10 Norte 0 -- -- 72
2020-04-29 01:00:00 11.7 7 Norte 10 Norte 0 -- -- 66
2020-04-29 00:00:00 12.1 8 Norte 15 Norte 0 -- -- 63
2020-04-28 23:00:00 12.5 8 Norte 11 Norte 0 -- -- 61
2020-04-28 22:00:00 13.4 8 Norte 12 Noroeste 0 -- -- 58
2020-04-28 21:00:00 16.3 9 Noroeste 21 Norte 0 -- -- 47
2020-04-28 20:00:00 17.6 12 Noroeste 21 Noroeste 0 -- -- 40
2020-04-28 19:00:00 18 10 Noroeste 27 Noroeste 0 -- -- 42
2020-04-28 18:00:00 18.7 8 Noroeste 24 Oeste 0 -- -- 44
2020-04-28 17:00:00 18.5 9 Noroeste 22 Oeste 0 -- -- 42
2020-04-28 16:00:00 18.5 8 Oeste 21 Noroeste 0 -- -- 41
2020-04-28 15:00:00 18.7 6 Noroeste 18 Sudoeste 0 -- -- 43
2020-04-28 14:00:00 18.1 11 Sudoeste 19 Sudoeste 0 -- -- 46
2020-04-28 13:00:00 17 7 Noroeste 16 Noroeste 0 -- -- 51
2020-04-28 12:00:00 16.2 5 Noroeste 12 Sur 0 -- -- 53
2020-04-28 11:00:00 15.2 3 Noroeste 10 Norte 0 -- -- 60
2020-04-28 10:00:00 13.2 5 Norte 8 Norte 0 -- -- 78
2020-04-28 09:00:00 11.7 3 Nordeste 9 Nordeste 0 -- -- 86
2020-04-28 08:00:00 10.7 6 Nordeste 10 Nordeste 0 -- -- 86
2020-04-28 07:00:00 10.5 7 Nordeste 13 Norte 0 -- -- 90
2020-04-28 06:00:00 10.4 9 Norte 13 Norte 0 -- -- 90
2020-04-28 05:00:00 9.8 4 Norte 7 Norte 0 -- -- 95
2020-04-28 04:00:00 10.2 3 Norte 9 Norte 0 -- -- 92
2020-04-28 03:00:00 10.2 5 Norte 8 Norte 0 -- -- 92
2020-04-28 02:00:00 10.5 3 Norte 6 Norte 0 -- -- 94
2020-04-28 01:00:00 11.2 2 Noroeste 8 Sudoeste 0 -- -- 92
2020-04-28 00:00:00 11.8 4 Sudoeste 9 Oeste 0 -- -- 91
2020-04-27 23:00:00 11.9 0 Calma 12 Sudoeste 0 -- -- 91
2020-04-27 22:00:00 13.4 10 Sudoeste 18 Sudoeste 0 -- -- 88
2020-04-27 21:00:00 15.2 6 Sudoeste 14 Oeste 0 -- -- 73
2020-04-27 20:00:00 16.8 9 Oeste 19 Oeste 0 -- -- 64
2020-04-27 19:00:00 17.8 8 Oeste 20 Noroeste 0 -- -- 61
2020-04-27 18:00:00 17.6 8 Oeste 23 Oeste 0 -- -- 64
2020-04-27 17:00:00 17.3 9 Noroeste 20 Oeste 0 -- -- 71
2020-04-27 16:00:00 15.6 7 Norte 15 Noroeste 0 -- -- 77
2020-04-27 15:00:00 14 4 Noroeste 12 Sur 0.2 -- -- 86
2020-04-27 14:00:00 13.9 4 Sur 12 Nordeste 0 -- -- 83
2020-04-27 13:00:00 -- -- -- -- -- -- -- -- --
2020-04-27 12:00:00 -- -- -- -- -- -- -- -- --
2020-04-27 11:00:00 -- -- -- -- -- -- -- -- --
2020-04-27 10:00:00 -- -- -- -- -- -- -- -- --
2020-04-27 09:00:00 -- -- -- -- -- -- -- -- --
2020-04-27 08:00:00 -- -- -- -- -- -- -- -- --
2020-04-27 07:00:00 -- -- -- -- -- -- -- -- --
2020-04-27 06:00:00 -- -- -- -- -- -- -- -- --
2020-04-27 05:00:00 -- -- -- -- -- -- -- -- --
2020-04-27 04:00:00 -- -- -- -- -- -- -- -- --
2020-04-27 03:00:00 -- -- -- -- -- -- -- -- --
2020-04-27 02:00:00 -- -- -- -- -- -- -- -- --
2020-04-27 01:00:00 -- -- -- -- -- -- -- -- --
2020-04-27 00:00:00 -- -- -- -- -- -- -- -- --